Ebeye, Marshall Islands
Current Conditions -  °F | °C
As of 10:20 PM on Saturday 20 Dec 2014 (Local Time) from PKWA Reporting Station
Scattered Clouds Scattered Clouds  
Wind Chill: 83°   Ceiling: Unl
Heat Index: 89°   Visibility: 10mi
Dew Point: 74°   Wind: 21mph
Humidity: 74%   Direction: 50°NE
Pressure: 29.82"   Gusts: NA
Location:  8.89°N, 167.63°E
Report Text: PKWA 201020Z AUTO 05018KT 10SM SCT020 SCT026 28/23 A2982 RMK AO2 T02820231
Loading
Personal Weather Stations






























Interactive Weather Map New forecast layout! Learn more

10-Day Weather Forecast

Advertisements
Track Severe Weather on mobile